sensor_id;sensor_type;location;lat;lon;timestamp;pressure;altitude;pressure_sealevel;temperature;humidity
43503;BME280;29098;48.184;16.298;2022-10-13T00:00:50;100071.59;;;9.80;100.00
43503;BME280;29098;48.184;16.298;2022-10-13T00:03:16;100070.94;;;9.78;100.00
43503;BME280;29098;48.184;16.298;2022-10-13T00:05:42;100070.19;;;9.59;100.00
43503;BME280;29098;48.184;16.298;2022-10-13T00:08:07;100070.03;;;9.61;100.00
43503;BME280;29098;48.184;16.298;2022-10-13T00:10:34;100068.75;;;9.65;100.00
43503;BME280;29098;48.184;16.298;2022-10-13T00:13:00;100071.34;;;9.57;100.00
43503;BME280;29098;48.184;16.298;2022-10-13T00:15:25;100073.88;;;9.67;100.00
43503;BME280;29098;48.184;16.298;2022-10-13T00:17:51;100060.84;;;9.65;100.00
43503;BME280;29098;48.184;16.298;2022-10-13T00:20:16;100064.94;;;9.59;100.00
43503;BME280;29098;48.184;16.298;2022-10-13T00:22:41;100063.84;;;9.70;100.00
43503;BME280;29098;48.184;16.298;2022-10-13T00:25:07;100064.00;;;9.69;100.00
43503;BME280;29098;48.184;16.298;2022-10-13T00:27:32;100064.03;;;9.77;100.00
43503;BME280;29098;48.184;16.298;2022-10-13T00:29:58;100062.69;;;9.81;100.00
43503;BME280;29098;48.184;16.298;2022-10-13T00:32:23;100062.69;;;9.81;100.00
43503;BME280;29098;48.184;16.298;2022-10-13T00:34:49;100052.19;;;9.90;100.00
43503;BME280;29098;48.184;16.298;2022-10-13T00:37:14;100046.44;;;9.86;100.00
43503;BME280;29098;48.184;16.298;2022-10-13T00:39:39;100055.31;;;9.85;100.00
43503;BME280;29098;48.184;16.298;2022-10-13T00:42:05;100052.53;;;9.86;100.00
43503;BME280;29098;48.184;16.298;2022-10-13T00:47:15;100050.50;;;9.72;100.00
43503;BME280;29098;48.184;16.298;2022-10-13T00:49:40;100055.25;;;9.68;100.00
43503;BME280;29098;48.184;16.298;2022-10-13T00:52:05;100045.72;;;9.67;100.00
43503;BME280;29098;48.184;16.298;2022-10-13T00:54:31;100051.47;;;9.71;100.00
43503;BME280;29098;48.184;16.298;2022-10-13T00:56:57;100049.22;;;9.76;100.00
43503;BME280;29098;48.184;16.298;2022-10-13T00:59:24;100045.56;;;9.69;100.00
43503;BME280;29098;48.184;16.298;2022-10-13T01:01:51;100043.72;;;9.69;100.00
43503;BME280;29098;48.184;16.298;2022-10-13T01:04:17;100045.22;;;9.72;100.00
43503;BME280;29098;48.184;16.298;2022-10-13T01:06:43;100050.16;;;9.67;100.00
43503;BME280;29098;48.184;16.298;2022-10-13T01:09:09;100043.59;;;9.71;100.00
43503;BME280;29098;48.184;16.298;2022-10-13T01:14:12;100038.97;;;9.73;100.00
43503;BME280;29098;48.184;16.298;2022-10-13T01:30:11;100030.63;;;9.43;100.00
43503;BME280;29098;48.184;16.298;2022-10-13T01:38:20;100032.88;;;9.64;100.00
43503;BME280;29098;48.184;16.298;2022-10-13T01:41:32;100032.03;;;9.64;100.00
43503;BME280;29098;48.184;16.298;2022-10-13T01:43:42;100023.47;;;9.62;100.00
43503;BME280;29098;48.184;16.298;2022-10-13T01:46:19;100027.91;;;9.61;100.00
43503;BME280;29098;48.184;16.298;2022-10-13T01:48:46;100019.47;;;9.49;100.00
43503;BME280;29098;48.184;16.298;2022-10-13T01:51:13;100017.19;;;9.54;100.00
43503;BME280;29098;48.184;16.298;2022-10-13T01:53:40;100024.75;;;9.57;100.00
43503;BME280;29098;48.184;16.298;2022-10-13T01:56:06;100016.91;;;9.66;100.00
43503;BME280;29098;48.184;16.298;2022-10-13T01:58:32;100017.88;;;9.65;100.00
43503;BME280;29098;48.184;16.298;2022-10-13T02:03:25;100008.50;;;9.62;100.00
43503;BME280;29098;48.184;16.298;2022-10-13T02:08:30;100020.31;;;9.50;100.00
43503;BME280;29098;48.184;16.298;2022-10-13T02:11:13;100022.63;;;9.53;100.00
43503;BME280;29098;48.184;16.298;2022-10-13T02:13:40;100020.50;;;9.56;100.00
43503;BME280;29098;48.184;16.298;2022-10-13T02:16:08;100022.50;;;9.63;100.00
43503;BME280;29098;48.184;16.298;2022-10-13T02:18:34;100008.34;;;9.64;100.00
43503;BME280;29098;48.184;16.298;2022-10-13T02:21:00;100006.84;;;9.61;100.00
43503;BME280;29098;48.184;16.298;2022-10-13T02:23:26;100002.41;;;9.62;100.00
43503;BME280;29098;48.184;16.298;2022-10-13T02:25:52;100010.16;;;9.63;100.00
43503;BME280;29098;48.184;16.298;2022-10-13T02:28:18;100005.59;;;9.73;100.00
43503;BME280;29098;48.184;16.298;2022-10-13T02:30:44;100010.53;;;9.77;100.00
43503;BME280;29098;48.184;16.298;2022-10-13T02:33:10;100007.13;;;9.93;100.00
43503;BME280;29098;48.184;16.298;2022-10-13T02:35:35;100010.56;;;9.93;100.00
43503;BME280;29098;48.184;16.298;2022-10-13T02:38:01;100007.13;;;10.01;100.00
43503;BME280;29098;48.184;16.298;2022-10-13T02:40:26;100007.13;;;10.01;100.00
43503;BME280;29098;48.184;16.298;2022-10-13T02:42:52;100009.13;;;9.99;100.00
43503;BME280;29098;48.184;16.298;2022-10-13T02:45:17;100006.97;;;9.94;100.00
43503;BME280;29098;48.184;16.298;2022-10-13T02:47:42;100002.72;;;10.02;100.00
43503;BME280;29098;48.184;16.298;2022-10-13T02:50:07;99999.09;;;10.03;100.00
43503;BME280;29098;48.184;16.298;2022-10-13T02:52:33;99999.25;;;10.09;100.00
43503;BME280;29098;48.184;16.298;2022-10-13T02:54:58;99994.63;;;10.03;100.00
43503;BME280;29098;48.184;16.298;2022-10-13T02:57:23;100002.38;;;10.05;100.00
43503;BME280;29098;48.184;16.298;2022-10-13T02:59:49;100002.53;;;10.11;100.00
43503;BME280;29098;48.184;16.298;2022-10-13T03:02:14;99993.97;;;10.09;100.00
43503;BME280;29098;48.184;16.298;2022-10-13T03:04:39;99993.63;;;10.12;100.00
43503;BME280;29098;48.184;16.298;2022-10-13T03:07:05;99998.91;;;10.12;100.00
43503;BME280;29098;48.184;16.298;2022-10-13T03:09:30;99998.94;;;10.21;100.00
43503;BME280;29098;48.184;16.298;2022-10-13T03:11:56;99999.41;;;10.16;100.00
43503;BME280;29098;48.184;16.298;2022-10-13T03:14:21;99996.31;;;10.21;100.00
43503;BME280;29098;48.184;16.298;2022-10-13T03:16:46;99992.69;;;10.22;100.00
43503;BME280;29098;48.184;16.298;2022-10-13T03:19:12;99995.31;;;10.13;100.00
43503;BME280;29098;48.184;16.298;2022-10-13T03:21:37;99993.00;;;10.19;100.00
43503;BME280;29098;48.184;16.298;2022-10-13T03:24:03;99995.97;;;10.16;100.00
43503;BME280;29098;48.184;16.298;2022-10-13T03:26:29;99995.63;;;10.10;100.00
43503;BME280;29098;48.184;16.298;2022-10-13T03:28:54;99992.50;;;10.15;100.00
43503;BME280;29098;48.184;16.298;2022-10-13T03:31:20;100000.75;;;10.20;100.00
43503;BME280;29098;48.184;16.298;2022-10-13T03:33:45;99998.75;;;10.22;100.00
43503;BME280;29098;48.184;16.298;2022-10-13T03:36:11;99995.47;;;10.20;100.00
43503;BME280;29098;48.184;16.298;2022-10-13T03:38:37;99992.50;;;10.15;100.00
43503;BME280;29098;48.184;16.298;2022-10-13T03:41:06;99997.47;;;10.18;100.00
43503;BME280;29098;48.184;16.298;2022-10-13T03:43:32;99999.91;;;10.28;100.00
43503;BME280;29098;48.184;16.298;2022-10-13T03:45:58;100006.69;;;10.31;100.00
43503;BME280;29098;48.184;16.298;2022-10-13T03:48:24;99997.78;;;10.32;100.00
43503;BME280;29098;48.184;16.298;2022-10-13T03:50:50;99999.59;;;10.39;100.00
43503;BME280;29098;48.184;16.298;2022-10-13T03:53:15;100001.94;;;10.43;100.00
43503;BME280;29098;48.184;16.298;2022-10-13T03:55:40;99998.63;;;10.40;100.00
43503;BME280;29098;48.184;16.298;2022-10-13T03:58:05;100000.09;;;10.35;100.00
43503;BME280;29098;48.184;16.298;2022-10-13T04:00:31;100000.25;;;10.33;100.00
43503;BME280;29098;48.184;16.298;2022-10-13T04:02:56;99997.13;;;10.38;100.00
43503;BME280;29098;48.184;16.298;2022-10-13T04:05:21;99997.81;;;10.40;100.00
43503;BME280;29098;48.184;16.298;2022-10-13T04:07:46;99999.00;;;10.46;100.00
43503;BME280;29098;48.184;16.298;2022-10-13T04:10:12;99995.34;;;10.38;100.00
43503;BME280;29098;48.184;16.298;2022-10-13T04:12:37;99995.84;;;10.42;100.00
43503;BME280;29098;48.184;16.298;2022-10-13T04:15:02;99991.22;;;10.52;100.00
43503;BME280;29098;48.184;16.298;2022-10-13T04:17:28;99985.47;;;10.49;100.00
43503;BME280;29098;48.184;16.298;2022-10-13T04:19:54;99986.47;;;10.48;100.00
43503;BME280;29098;48.184;16.298;2022-10-13T04:22:19;99985.47;;;10.49;100.00
43503;BME280;29098;48.184;16.298;2022-10-13T04:24:44;99989.44;;;10.61;100.00
43503;BME280;29098;48.184;16.298;2022-10-13T04:27:10;99989.44;;;10.53;100.00
43503;BME280;29098;48.184;16.298;2022-10-13T04:29:35;99987.78;;;10.60;100.00
43503;BME280;29098;48.184;16.298;2022-10-13T04:32:00;99992.06;;;10.53;100.00
43503;BME280;29098;48.184;16.298;2022-10-13T04:34:25;99990.41;;;10.60;100.00
43503;BME280;29098;48.184;16.298;2022-10-13T04:36:51;99992.56;;;10.65;100.00
43503;BME280;29098;48.184;16.298;2022-10-13T04:39:16;99996.34;;;10.71;100.00
43503;BME280;29098;48.184;16.298;2022-10-13T04:41:42;99991.41;;;10.67;100.00
43503;BME280;29098;48.184;16.298;2022-10-13T04:44:07;99989.75;;;10.75;100.00
43503;BME280;29098;48.184;16.298;2022-10-13T04:46:32;99993.34;;;10.74;100.00
43503;BME280;29098;48.184;16.298;2022-10-13T04:48:58;99997.47;;;10.76;100.00
43503;BME280;29098;48.184;16.298;2022-10-13T04:51:24;99995.81;;;10.83;100.00
43503;BME280;29098;48.184;16.298;2022-10-13T04:53:55;100005.88;;;10.80;100.00
43503;BME280;29098;48.184;16.298;2022-10-13T04:56:21;100000.94;;;10.77;100.00
43503;BME280;29098;48.184;16.298;2022-10-13T04:58:46;99998.13;;;10.70;100.00
43503;BME280;29098;48.184;16.298;2022-10-13T05:01:13;100002.44;;;10.71;100.00
43503;BME280;29098;48.184;16.298;2022-10-13T05:03:39;99995.84;;;10.75;100.00
43503;BME280;29098;48.184;16.298;2022-10-13T05:06:05;99999.97;;;10.69;100.00
43503;BME280;29098;48.184;16.298;2022-10-13T05:08:30;99997.66;;;10.75;100.00
43503;BME280;29098;48.184;16.298;2022-10-13T05:11:00;100003.44;;;10.78;100.00
43503;BME280;29098;48.184;16.298;2022-10-13T05:13:26;99997.66;;;10.83;100.00
43503;BME280;29098;48.184;16.298;2022-10-13T05:15:52;99997.97;;;10.80;100.00
43503;BME280;29098;48.184;16.298;2022-10-13T05:18:17;100001.09;;;10.83;100.00
43503;BME280;29098;48.184;16.298;2022-10-13T05:20:42;99999.47;;;10.74;100.00
43503;BME280;29098;48.184;16.298;2022-10-13T05:23:07;99992.69;;;10.80;100.00
43503;BME280;29098;48.184;16.298;2022-10-13T05:25:34;100003.41;;;10.87;100.00
43503;BME280;29098;48.184;16.298;2022-10-13T05:27:59;99999.59;;;10.89;100.00
43503;BME280;29098;48.184;16.298;2022-10-13T05:30:24;99998.44;;;10.92;100.00
43503;BME280;29098;48.184;16.298;2022-10-13T05:32:50;99998.63;;;10.90;100.00
43503;BME280;29098;48.184;16.298;2022-10-13T05:35:15;100003.06;;;10.90;100.00
43503;BME280;29098;48.184;16.298;2022-10-13T05:37:40;100001.41;;;10.97;100.00
43503;BME280;29098;48.184;16.298;2022-10-13T05:40:06;100013.13;;;10.94;100.00
43503;BME280;29098;48.184;16.298;2022-10-13T05:42:31;100007.97;;;11.01;100.00
43503;BME280;29098;48.184;16.298;2022-10-13T05:44:59;100008.81;;;11.02;100.00
43503;BME280;29098;48.184;16.298;2022-10-13T05:47:24;100009.66;;;11.02;100.00
43503;BME280;29098;48.184;16.298;2022-10-13T05:49:52;100011.59;;;11.17;100.00
43503;BME280;29098;48.184;16.298;2022-10-13T05:52:17;100011.38;;;11.27;100.00
43503;BME280;29098;48.184;16.298;2022-10-13T05:54:44;100015.69;;;11.19;100.00
43503;BME280;29098;48.184;16.298;2022-10-13T05:57:13;100018.69;;;11.08;100.00
43503;BME280;29098;48.184;16.298;2022-10-13T05:59:41;100021.31;;;11.16;99.72
43503;BME280;29098;48.184;16.298;2022-10-13T06:02:07;100017.00;;;11.23;99.33
43503;BME280;29098;48.184;16.298;2022-10-13T06:04:38;100017.69;;;11.17;98.10
43503;BME280;29098;48.184;16.298;2022-10-13T06:07:05;100021.19;;;11.09;97.58
43503;BME280;29098;48.184;16.298;2022-10-13T06:09:32;100022.00;;;11.10;97.37
43503;BME280;29098;48.184;16.298;2022-10-13T06:12:02;100011.63;;;11.00;97.06
43503;BME280;29098;48.184;16.298;2022-10-13T06:14:27;100023.16;;;11.07;96.93
43503;BME280;29098;48.184;16.298;2022-10-13T06:16:52;100026.13;;;11.04;97.69
43503;BME280;29098;48.184;16.298;2022-10-13T06:19:18;100030.06;;;11.08;97.89
43503;BME280;29098;48.184;16.298;2022-10-13T06:21:43;100027.59;;;11.15;97.29
43503;BME280;29098;48.184;16.298;2022-10-13T06:24:08;100029.25;;;11.16;95.77
43503;BME280;29098;48.184;16.298;2022-10-13T06:26:34;100028.91;;;11.11;95.67
43503;BME280;29098;48.184;16.298;2022-10-13T06:28:59;100027.94;;;11.04;96.31
43503;BME280;29098;48.184;16.298;2022-10-13T06:31:24;100034.88;;;10.96;96.22
43503;BME280;29098;48.184;16.298;2022-10-13T06:33:49;100033.06;;;10.97;96.14
43503;BME280;29098;48.184;16.298;2022-10-13T06:36:15;100034.69;;;11.15;96.02
43503;BME280;29098;48.184;16.298;2022-10-13T06:38:40;100035.84;;;11.04;95.52
43503;BME280;29098;48.184;16.298;2022-10-13T06:41:05;100033.72;;;10.99;96.03
43503;BME280;29098;48.184;16.298;2022-10-13T06:43:31;100034.84;;;11.05;96.33
43503;BME280;29098;48.184;16.298;2022-10-13T06:45:57;100028.63;;;10.98;96.06
43503;BME280;29098;48.184;16.298;2022-10-13T06:48:23;100026.28;;;11.03;95.50
43503;BME280;29098;48.184;16.298;2022-10-13T06:50:48;100025.63;;;11.09;95.06
43503;BME280;29098;48.184;16.298;2022-10-13T06:53:14;100023.00;;;11.01;95.92
43503;BME280;29098;48.184;16.298;2022-10-13T06:55:39;100024.50;;;11.03;96.29
43503;BME280;29098;48.184;16.298;2022-10-13T06:58:07;100021.19;;;11.09;96.34
43503;BME280;29098;48.184;16.298;2022-10-13T07:00:32;100022.00;;;11.02;96.60
43503;BME280;29098;48.184;16.298;2022-10-13T07:02:57;100021.19;;;10.93;97.09
43503;BME280;29098;48.184;16.298;2022-10-13T07:05:23;100020.22;;;10.77;98.59
43503;BME280;29098;48.184;16.298;2022-10-13T07:07:50;100020.06;;;10.79;98.92
43503;BME280;29098;48.184;16.298;2022-10-13T07:10:15;100018.75;;;10.91;99.07
43503;BME280;29098;48.184;16.298;2022-10-13T07:12:41;100023.97;;;11.08;98.63
43503;BME280;29098;48.184;16.298;2022-10-13T07:15:06;100020.69;;;11.06;98.01
43503;BME280;29098;48.184;16.298;2022-10-13T07:17:31;100030.91;;;11.09;98.48
43503;BME280;29098;48.184;16.298;2022-10-13T07:19:57;100026.25;;;11.19;97.43
43503;BME280;29098;48.184;16.298;2022-10-13T07:22:22;100021.66;;;11.21;97.41
43503;BME280;29098;48.184;16.298;2022-10-13T07:24:47;100022.47;;;11.22;98.28
43503;BME280;29098;48.184;16.298;2022-10-13T07:27:12;100020.97;;;11.19;98.23
43503;BME280;29098;48.184;16.298;2022-10-13T07:29:38;100017.50;;;11.27;97.84
43503;BME280;29098;48.184;16.298;2022-10-13T07:32:03;100024.91;;;11.32;97.34
43503;BME280;29098;48.184;16.298;2022-10-13T07:34:29;100023.63;;;11.19;98.11
43503;BME280;29098;48.184;16.298;2022-10-13T07:36:54;100017.66;;;11.26;98.13
43503;BME280;29098;48.184;16.298;2022-10-13T07:39:19;100021.63;;;11.30;97.79
43503;BME280;29098;48.184;16.298;2022-10-13T07:41:44;100006.03;;;11.43;97.23
43503;BME280;29098;48.184;16.298;2022-10-13T07:44:10;100010.03;;;11.39;96.38
43503;BME280;29098;48.184;16.298;2022-10-13T07:46:35;100026.31;;;11.51;96.30
43503;BME280;29098;48.184;16.298;2022-10-13T07:49:00;100012.31;;;11.42;96.28
43503;BME280;29098;48.184;16.298;2022-10-13T07:51:25;100010.34;;;11.44;95.99
43503;BME280;29098;48.184;16.298;2022-10-13T07:53:51;100015.28;;;11.47;96.49
43503;BME280;29098;48.184;16.298;2022-10-13T07:56:16;100016.59;;;11.51;96.25
43503;BME280;29098;48.184;16.298;2022-10-13T07:58:43;100019.22;;;11.60;95.63
43503;BME280;29098;48.184;16.298;2022-10-13T08:01:08;100022.09;;;11.73;95.29
43503;BME280;29098;48.184;16.298;2022-10-13T08:03:34;100021.78;;;11.76;94.22
43503;BME280;29098;48.184;16.298;2022-10-13T08:06:00;100019.59;;;11.80;94.85
43503;BME280;29098;48.184;16.298;2022-10-13T08:08:26;100020.25;;;11.82;94.83
43503;BME280;29098;48.184;16.298;2022-10-13T08:10:51;100021.28;;;11.73;94.66
43503;BME280;29098;48.184;16.298;2022-10-13T08:13:16;100025.53;;;11.82;94.93
43503;BME280;29098;48.184;16.298;2022-10-13T08:15:42;100017.09;;;11.87;94.48
43503;BME280;29098;48.184;16.298;2022-10-13T08:18:08;100018.03;;;11.94;94.35
43503;BME280;29098;48.184;16.298;2022-10-13T08:20:34;100016.59;;;11.83;94.48
43503;BME280;29098;48.184;16.298;2022-10-13T08:22:59;100013.53;;;11.71;95.12
43503;BME280;29098;48.184;16.298;2022-10-13T08:25:24;100017.28;;;11.77;94.73
43503;BME280;29098;48.184;16.298;2022-10-13T08:27:50;100013.19;;;11.74;95.45
43503;BME280;29098;48.184;16.298;2022-10-13T08:30:15;100005.91;;;11.76;95.05
43503;BME280;29098;48.184;16.298;2022-10-13T08:32:40;100015.09;;;11.89;94.84
43503;BME280;29098;48.184;16.298;2022-10-13T08:35:06;100013.22;;;11.98;94.16
43503;BME280;29098;48.184;16.298;2022-10-13T08:37:31;100003.22;;;11.85;94.35
43503;BME280;29098;48.184;16.298;2022-10-13T08:39:56;100020.16;;;11.99;94.41
43503;BME280;29098;48.184;16.298;2022-10-13T08:42:21;100012.56;;;12.04;94.38
43503;BME280;29098;48.184;16.298;2022-10-13T08:44:48;100017.16;;;12.10;94.68
43503;BME280;29098;48.184;16.298;2022-10-13T08:49:59;100014.25;;;12.20;94.23
43503;BME280;29098;48.184;16.298;2022-10-13T08:52:27;100014.72;;;12.24;94.50
43503;BME280;29098;48.184;16.298;2022-10-13T08:54:53;100009.06;;;12.35;93.94
43503;BME280;29098;48.184;16.298;2022-10-13T08:57:20;100015.91;;;12.44;93.19
43503;BME280;29098;48.184;16.298;2022-10-13T08:59:45;100010.09;;;12.49;93.52
43503;BME280;29098;48.184;16.298;2022-10-13T09:02:20;100011.03;;;12.56;92.67
43503;BME280;29098;48.184;16.298;2022-10-13T09:04:46;100007.75;;;12.54;91.48
43503;BME280;29098;48.184;16.298;2022-10-13T09:07:18;100009.75;;;12.52;92.24
43503;BME280;29098;48.184;16.298;2022-10-13T09:09:44;100010.50;;;12.61;92.84
43503;BME280;29098;48.184;16.298;2022-10-13T09:12:13;100012.31;;;12.60;92.26
43503;BME280;29098;48.184;16.298;2022-10-13T09:14:39;100009.47;;;12.62;91.47
43503;BME280;29098;48.184;16.298;2022-10-13T09:17:18;100011.72;;;12.50;92.41
43503;BME280;29098;48.184;16.298;2022-10-13T09:19:56;100010.22;;;12.56;92.56
43503;BME280;29098;48.184;16.298;2022-10-13T09:22:23;100009.38;;;12.55;92.42
43503;BME280;29098;48.184;16.298;2022-10-13T09:30:29;100009.75;;;12.52;93.88
43503;BME280;29098;48.184;16.298;2022-10-13T09:36:05;99998.31;;;12.75;93.00
43503;BME280;29098;48.184;16.298;2022-10-13T09:38:19;99998.50;;;12.73;93.27
43503;BME280;29098;48.184;16.298;2022-10-13T09:40:56;99999.25;;;12.82;93.64
43503;BME280;29098;48.184;16.298;2022-10-13T09:43:30;100000.50;;;12.86;93.29
43503;BME280;29098;48.184;16.298;2022-10-13T09:45:56;99997.22;;;12.84;93.59
43503;BME280;29098;48.184;16.298;2022-10-13T09:48:24;99992.28;;;12.81;94.30
43503;BME280;29098;48.184;16.298;2022-10-13T09:50:51;99998.41;;;12.82;94.26
43503;BME280;29098;48.184;16.298;2022-10-13T09:55:42;99998.31;;;13.05;94.34
43503;BME280;29098;48.184;16.298;2022-10-13T09:58:16;99996.59;;;13.12;94.05
43503;BME280;29098;48.184;16.298;2022-10-13T10:00:43;99991.31;;;13.12;93.64
43503;BME280;29098;48.184;16.298;2022-10-13T10:03:16;99993.03;;;13.05;93.75
43503;BME280;29098;48.184;16.298;2022-10-13T10:10:52;99994.41;;;13.31;92.33
43503;BME280;29098;48.184;16.298;2022-10-13T10:13:18;99989.38;;;13.21;92.50
43503;BME280;29098;48.184;16.298;2022-10-13T10:20:58;99993.03;;;13.35;91.51
43503;BME280;29098;48.184;16.298;2022-10-13T10:23:38;99991.66;;;13.24;92.79
43503;BME280;29098;48.184;16.298;2022-10-13T10:26:17;99994.13;;;13.26;92.79
43503;BME280;29098;48.184;16.298;2022-10-13T10:29:05;99993.03;;;13.05;93.39
43503;BME280;29098;48.184;16.298;2022-10-13T10:34:30;99984.56;;;13.10;94.23
43503;BME280;29098;48.184;16.298;2022-10-13T10:39:37;99986.66;;;13.14;93.60
43503;BME280;29098;48.184;16.298;2022-10-13T10:44:33;99987.84;;;13.27;93.99
43503;BME280;29098;48.184;16.298;2022-10-13T10:47:01;99988.13;;;13.32;93.55
43503;BME280;29098;48.184;16.298;2022-10-13T10:49:30;99975.03;;;13.31;94.12
43503;BME280;29098;48.184;16.298;2022-10-13T10:51:56;99980.78;;;13.34;93.80
43503;BME280;29098;48.184;16.298;2022-10-13T10:54:29;99976.06;;;13.45;93.14
43503;BME280;29098;48.184;16.298;2022-10-13T11:04:43;99969.47;;;13.40;91.90
43503;BME280;29098;48.184;16.298;2022-10-13T11:10:15;99960.91;;;13.38;92.24
43503;BME280;29098;48.184;16.298;2022-10-13T11:15:29;99954.78;;;13.53;91.82
43503;BME280;29098;48.184;16.298;2022-10-13T11:20:56;99952.78;;;13.55;91.28
43503;BME280;29098;48.184;16.298;2022-10-13T11:23:28;99940.78;;;13.59;91.63
43503;BME280;29098;48.184;16.298;2022-10-13T11:25:58;99951.38;;;13.59;91.61
43503;BME280;29098;48.184;16.298;2022-10-13T11:38:48;99923.09;;;13.81;90.99
43503;BME280;29098;48.184;16.298;2022-10-13T11:41:24;99931.75;;;13.90;90.47
43503;BME280;29098;48.184;16.298;2022-10-13T11:43:54;99921.16;;;13.90;90.48
43503;BME280;29098;48.184;16.298;2022-10-13T11:46:23;99912.19;;;13.91;89.99
43503;BME280;29098;48.184;16.298;2022-10-13T11:51:31;99908.53;;;13.92;89.00
43503;BME280;29098;48.184;16.298;2022-10-13T11:56:47;99904.97;;;14.07;87.88
43503;BME280;29098;48.184;16.298;2022-10-13T12:01:56;99895.50;;;13.97;87.25
43503;BME280;29098;48.184;16.298;2022-10-13T12:04:22;99886.22;;;14.08;87.68
43503;BME280;29098;48.184;16.298;2022-10-13T12:06:52;99882.38;;;14.11;87.74
43503;BME280;29098;48.184;16.298;2022-10-13T12:09:19;99881.56;;;14.10;87.13
43503;BME280;29098;48.184;16.298;2022-10-13T12:11:45;99879.09;;;14.09;87.13
43503;BME280;29098;48.184;16.298;2022-10-13T12:14:21;99880.47;;;14.05;86.56
43503;BME280;29098;48.184;16.298;2022-10-13T12:16:54;99876.13;;;13.97;87.11
43503;BME280;29098;48.184;16.298;2022-10-13T12:19:22;99870.75;;;14.12;87.87
43503;BME280;29098;48.184;16.298;2022-10-13T12:21:48;99865.41;;;14.05;86.44
43503;BME280;29098;48.184;16.298;2022-10-13T12:24:14;99863.75;;;14.04;86.46
43503;BME280;29098;48.184;16.298;2022-10-13T12:26:39;99864.19;;;14.08;86.79
43503;BME280;29098;48.184;16.298;2022-10-13T12:29:09;99859.91;;;14.07;85.88
43503;BME280;29098;48.184;16.298;2022-10-13T12:31:43;99863.31;;;14.01;87.07
43503;BME280;29098;48.184;16.298;2022-10-13T12:34:17;99855.97;;;14.24;86.36
43503;BME280;29098;48.184;16.298;2022-10-13T12:36:43;99849.03;;;14.23;85.60
43503;BME280;29098;48.184;16.298;2022-10-13T12:39:11;99858.72;;;14.38;84.87
43503;BME280;29098;48.184;16.298;2022-10-13T12:41:39;99853.16;;;14.33;85.10
43503;BME280;29098;48.184;16.298;2022-10-13T12:44:06;99846.25;;;14.38;85.11
43503;BME280;29098;48.184;16.298;2022-10-13T12:46:36;99850.09;;;14.36;84.33
43503;BME280;29098;48.184;16.298;2022-10-13T12:51:46;99852.38;;;14.39;85.50
43503;BME280;29098;48.184;16.298;2022-10-13T12:55:14;99845.31;;;14.53;83.92
43503;BME280;29098;48.184;16.298;2022-10-13T12:57:20;99854.25;;;14.45;84.88
43503;BME280;29098;48.184;16.298;2022-10-13T12:59:46;99845.59;;;14.30;84.79
43503;BME280;29098;48.184;16.298;2022-10-13T13:02:19;99845.03;;;14.41;85.53
43503;BME280;29098;48.184;16.298;2022-10-13T13:04:46;99839.13;;;14.39;85.08
43503;BME280;29098;48.184;16.298;2022-10-13T13:07:24;99835.06;;;14.43;85.65
43503;BME280;29098;48.184;16.298;2022-10-13T13:12:28;99837.34;;;14.46;85.98
43503;BME280;29098;48.184;16.298;2022-10-13T13:14:54;99835.47;;;14.47;86.44
43503;BME280;29098;48.184;16.298;2022-10-13T13:17:21;99825.53;;;14.56;85.79
43503;BME280;29098;48.184;16.298;2022-10-13T13:19:48;99832.22;;;14.45;85.24
43503;BME280;29098;48.184;16.298;2022-10-13T13:22:14;99828.59;;;14.52;85.13
43503;BME280;29098;48.184;16.298;2022-10-13T13:24:40;99820.41;;;14.47;84.49
43503;BME280;29098;48.184;16.298;2022-10-13T13:27:15;99824.94;;;14.54;84.67
43503;BME280;29098;48.184;16.298;2022-10-13T13:29:40;99820.06;;;14.57;85.26
43503;BME280;29098;48.184;16.298;2022-10-13T13:32:08;99820.84;;;14.58;85.73
43503;BME280;29098;48.184;16.298;2022-10-13T13:34:35;99821.69;;;14.58;85.69
43503;BME280;29098;48.184;16.298;2022-10-13T13:37:01;99822.47;;;14.59;85.51
43503;BME280;29098;48.184;16.298;2022-10-13T13:39:26;99815.09;;;14.47;85.37
43503;BME280;29098;48.184;16.298;2022-10-13T13:41:51;99814.25;;;14.47;85.32
43503;BME280;29098;48.184;16.298;2022-10-13T13:44:17;99813.88;;;14.50;85.50
43503;BME280;29098;48.184;16.298;2022-10-13T13:46:42;99809.38;;;14.50;85.23
43503;BME280;29098;48.184;16.298;2022-10-13T13:49:08;99810.03;;;14.52;85.53
43503;BME280;29098;48.184;16.298;2022-10-13T13:51:34;99804.94;;;14.58;85.38
43503;BME280;29098;48.184;16.298;2022-10-13T13:53:59;99804.06;;;14.50;86.24
43503;BME280;29098;48.184;16.298;2022-10-13T13:56:25;99800.41;;;14.51;86.70
43503;BME280;29098;48.184;16.298;2022-10-13T13:58:50;99807.59;;;14.58;86.03
43503;BME280;29098;48.184;16.298;2022-10-13T14:01:15;99797.13;;;14.49;86.80
43503;BME280;29098;48.184;16.298;2022-10-13T14:03:40;99798.34;;;14.47;85.51
43503;BME280;29098;48.184;16.298;2022-10-13T14:06:06;99798.00;;;14.57;85.86
43503;BME280;29098;48.184;16.298;2022-10-13T14:08:32;99801.25;;;14.59;86.10
43503;BME280;29098;48.184;16.298;2022-10-13T14:10:58;99802.69;;;14.55;85.65
43503;BME280;29098;48.184;16.298;2022-10-13T14:13:23;99800.88;;;14.62;85.17
43503;BME280;29098;48.184;16.298;2022-10-13T14:15:58;99801.31;;;14.65;85.39
43503;BME280;29098;48.184;16.298;2022-10-13T14:18:24;99792.94;;;14.62;84.78
43503;BME280;29098;48.184;16.298;2022-10-13T14:20:49;99781.28;;;14.63;84.83
43503;BME280;29098;48.184;16.298;2022-10-13T14:23:14;99789.84;;;14.58;85.16